createdAt,value
2018-07-30T00:00:19.545Z,1003
2018-07-30T00:01:33.504Z,1002.98
2018-07-30T00:02:48.022Z,1003
2018-07-30T00:04:01.952Z,1002.96
2018-07-30T00:05:16.412Z,1002.98
2018-07-30T00:06:31.673Z,1003.01
2018-07-30T00:07:46.800Z,1003.01
2018-07-30T00:09:02.036Z,1002.99
2018-07-30T00:10:16.983Z,1003.01
2018-07-30T00:11:31.654Z,1003.04
2018-07-30T00:12:45.879Z,1003.02
2018-07-30T00:14:00.496Z,1003.01
2018-07-30T00:15:15.055Z,1003.01
2018-07-30T00:16:29.746Z,1003.04
2018-07-30T00:17:43.427Z,1003.05
2018-07-30T00:18:57.894Z,1003.08
2018-07-30T00:20:12.298Z,1003.06
2018-07-30T00:21:27.085Z,1003.09
2018-07-30T00:22:40.709Z,1003.07
2018-07-30T00:23:54.986Z,1003.1
2018-07-30T00:25:09.388Z,1003.15
2018-07-30T00:26:24.269Z,1003.11
2018-07-30T00:27:38.852Z,1003.14
2018-07-30T00:28:53.292Z,1003.17
2018-07-30T00:30:07.640Z,1003.16
2018-07-30T00:31:22.194Z,1003.14
2018-07-30T00:32:37.245Z,1003.15
2018-07-30T00:33:52.093Z,1003.15
2018-07-30T00:35:06.853Z,1003.15
2018-07-30T00:36:21.832Z,1003.13
2018-07-30T00:37:36.527Z,1003.15
2018-07-30T00:38:51.193Z,1003.13
2018-07-30T00:40:05.255Z,1003.16
2018-07-30T00:41:19.447Z,1003.17
2018-07-30T00:42:33.875Z,1003.22
2018-07-30T00:43:48.567Z,1003.22
2018-07-30T00:45:03.022Z,1003.2
2018-07-30T00:46:18.236Z,1003.25
2018-07-30T00:47:32.682Z,1003.25
2018-07-30T00:48:47.397Z,1003.25
2018-07-30T00:50:02.320Z,1003.27
2018-07-30T00:51:16.992Z,1003.25
2018-07-30T00:52:31.731Z,1003.27
2018-07-30T00:53:46.380Z,1003.28
2018-07-30T00:55:00.669Z,1003.29
2018-07-30T00:56:15.181Z,1003.3
2018-07-30T00:57:29.870Z,1003.31
2018-07-30T00:58:44.758Z,1003.29
2018-07-30T00:59:59.537Z,1003.28
2018-07-30T01:01:13.998Z,1003.27
2018-07-30T01:02:28.444Z,1003.29
2018-07-30T01:03:42.893Z,1003.28
2018-07-30T01:04:57.388Z,1003.3
2018-07-30T01:06:11.831Z,1003.29
2018-07-30T01:07:26.032Z,1003.32
2018-07-30T01:08:40.336Z,1003.35
2018-07-30T01:09:54.557Z,1003.31
2018-07-30T01:11:09.888Z,1003.36
2018-07-30T01:12:24.101Z,1003.35
2018-07-30T01:13:38.826Z,1003.36
2018-07-30T01:14:53.289Z,1003.4
2018-07-30T01:16:07.777Z,1003.36
2018-07-30T01:17:22.769Z,1003.38
2018-07-30T01:18:37.504Z,1003.42
2018-07-30T01:19:51.704Z,1003.41
2018-07-30T01:21:06.137Z,1003.4
2018-07-30T01:22:21.084Z,1003.44
2018-07-30T01:23:35.848Z,1003.43
2018-07-30T01:24:50.266Z,1003.43
2018-07-30T01:26:05.117Z,1003.44
2018-07-30T01:27:19.541Z,1003.48
2018-07-30T01:28:33.720Z,1003.44
2018-07-30T01:29:47.934Z,1003.44
2018-07-30T01:31:01.941Z,1003.45
2018-07-30T01:32:17.160Z,1003.49
2018-07-30T01:33:31.589Z,1003.41
2018-07-30T01:34:46.059Z,1003.49
2018-07-30T01:36:00.795Z,1003.47
2018-07-30T01:37:15.014Z,1003.49
2018-07-30T01:38:29.455Z,1003.49
2018-07-30T01:39:44.107Z,1003.49
2018-07-30T01:40:58.820Z,1003.45
2018-07-30T01:42:14.059Z,1003.49
2018-07-30T01:43:28.999Z,1003.48
2018-07-30T01:44:42.905Z,1003.49
2018-07-30T01:45:57.353Z,1003.46
2018-07-30T01:47:11.833Z,1003.49
2018-07-30T01:48:26.548Z,1003.51
2018-07-30T01:49:41.477Z,1003.49
2018-07-30T01:50:55.623Z,1003.52
2018-07-30T01:52:10.479Z,1003.51
2018-07-30T01:53:24.908Z,1003.52
2018-07-30T01:54:40.152Z,1003.53
2018-07-30T01:55:54.573Z,1003.56
2018-07-30T01:57:08.759Z,1003.59
2018-07-30T01:58:23.435Z,1003.58
2018-07-30T01:59:37.359Z,1003.58
2018-07-30T02:00:52.090Z,1003.57
2018-07-30T02:02:06.056Z,1003.58
2018-07-30T02:03:20.000Z,1003.59
2018-07-30T02:04:34.170Z,1003.6
2018-07-30T02:05:48.762Z,1003.59
2018-07-30T02:07:03.761Z,1003.62
2018-07-30T02:08:18.234Z,1003.64
2018-07-30T02:09:32.908Z,1003.62
2018-07-30T02:10:47.327Z,1003.7
2018-07-30T02:12:01.262Z,1003.69
2018-07-30T02:13:16.026Z,1003.69
2018-07-30T02:14:30.501Z,1003.7
2018-07-30T02:15:44.431Z,1003.72
2018-07-30T02:16:58.628Z,1003.7
2018-07-30T02:18:12.874Z,1003.69
2018-07-30T02:19:27.584Z,1003.7
2018-07-30T02:20:42.374Z,1003.66
2018-07-30T02:21:56.580Z,1003.7
2018-07-30T02:23:11.527Z,1003.71
2018-07-30T02:24:25.715Z,1003.71
2018-07-30T02:25:40.136Z,1003.75
2018-07-30T02:26:54.559Z,1003.74
2018-07-30T02:28:09.345Z,1003.71
2018-07-30T02:29:23.264Z,1003.78
2018-07-30T02:30:37.718Z,1003.72
2018-07-30T02:31:52.695Z,1003.68
2018-07-30T02:33:07.365Z,1003.73
2018-07-30T02:34:21.763Z,1003.7
2018-07-30T02:35:36.224Z,1003.71
2018-07-30T02:36:50.636Z,1003.73
2018-07-30T02:38:06.015Z,1003.72
2018-07-30T02:39:20.348Z,1003.71
2018-07-30T02:40:35.021Z,1003.73
2018-07-30T02:41:49.964Z,1003.71
2018-07-30T02:43:03.989Z,1003.71
2018-07-30T02:44:18.738Z,1003.75
2018-07-30T02:45:33.428Z,1003.77
2018-07-30T02:46:47.139Z,1003.76
2018-07-30T02:48:01.872Z,1003.73
2018-07-30T02:49:16.179Z,1003.75
2018-07-30T02:50:30.938Z,1003.74
2018-07-30T02:51:45.371Z,1003.8
2018-07-30T02:52:59.845Z,1003.78
2018-07-30T02:54:14.832Z,1003.77
2018-07-30T02:55:29.760Z,1003.77
2018-07-30T02:56:44.493Z,1003.82
2018-07-30T02:58:24.882Z,1003.76
2018-07-30T02:59:39.409Z,1003.75
2018-07-30T03:00:53.865Z,1003.78
2018-07-30T03:02:09.100Z,1003.77
2018-07-30T03:03:23.787Z,1003.81
2018-07-30T03:04:38.862Z,1003.79
2018-07-30T03:05:53.537Z,1003.79
2018-07-30T03:07:08.210Z,1003.78
2018-07-30T03:08:22.655Z,1003.78
2018-07-30T03:09:36.999Z,1003.79
2018-07-30T03:10:51.706Z,1003.76
2018-07-30T03:12:06.249Z,1003.75
2018-07-30T03:13:20.693Z,1003.78
2018-07-30T03:14:35.437Z,1003.81
2018-07-30T03:15:50.097Z,1003.8
2018-07-30T03:17:04.574Z,1003.8
2018-07-30T03:18:18.986Z,1003.82
2018-07-30T03:19:33.984Z,1003.8
2018-07-30T03:20:49.231Z,1003.83
2018-07-30T03:22:04.190Z,1003.81
2018-07-30T03:23:18.884Z,1003.81
2018-07-30T03:24:33.327Z,1003.83
2018-07-30T03:25:48.371Z,1003.81
2018-07-30T03:27:02.628Z,1003.88
2018-07-30T03:28:17.068Z,1003.9
2018-07-30T03:29:32.091Z,1003.84
2018-07-30T03:30:47.036Z,1003.88
2018-07-30T03:32:01.711Z,1003.84
2018-07-30T03:33:16.478Z,1003.86
2018-07-30T03:34:31.150Z,1003.83
2018-07-30T03:35:45.872Z,1003.86
2018-07-30T03:37:00.547Z,1003.85
2018-07-30T03:38:14.844Z,1003.86
2018-07-30T03:39:29.572Z,1003.86
2018-07-30T03:40:44.469Z,1003.92
2018-07-30T03:41:59.171Z,1003.97
2018-07-30T03:43:13.419Z,1003.97
2018-07-30T03:44:28.533Z,1003.98
2018-07-30T03:45:43.905Z,1004
2018-07-30T03:46:58.428Z,1004.02
2018-07-30T03:48:12.927Z,1004.05
2018-07-30T03:49:27.415Z,1004.02
2018-07-30T03:50:43.920Z,1004.02
2018-07-30T03:51:58.879Z,1004.05
2018-07-30T03:53:13.576Z,1004.03
2018-07-30T03:54:27.761Z,1004.01
2018-07-30T03:55:42.007Z,1004.01
2018-07-30T03:56:56.221Z,1004.03
2018-07-30T03:58:11.168Z,1004.03
2018-07-30T03:59:24.843Z,1003.97
2018-07-30T04:00:39.106Z,1003.97
2018-07-30T04:01:53.805Z,1003.99
2018-07-30T04:03:08.232Z,1004.02
2018-07-30T04:04:22.675Z,1004.02
2018-07-30T04:05:37.411Z,1004.03
2018-07-30T04:06:52.023Z,1004.04
2018-07-30T04:08:06.952Z,1004.08
2018-07-30T04:09:21.664Z,1004.08
2018-07-30T04:10:37.174Z,1004.06
2018-07-30T04:11:51.917Z,1004.06
2018-07-30T04:13:06.354Z,1004.07
2018-07-30T04:14:21.095Z,1004.06
2018-07-30T04:15:35.312Z,1004.07
2018-07-30T04:16:50.743Z,1004.08
2018-07-30T04:18:05.430Z,1004.12
2018-07-30T04:19:19.632Z,1004.11
2018-07-30T04:20:34.572Z,1004.09
2018-07-30T04:21:49.333Z,1004.13
2018-07-30T04:23:04.143Z,1004.14
2018-07-30T04:24:18.610Z,1004.16
2018-07-30T04:25:33.056Z,1004.18
2018-07-30T04:26:47.467Z,1004.22
2018-07-30T04:28:02.185Z,1004.19
2018-07-30T04:29:16.694Z,1004.18
2018-07-30T04:30:31.417Z,1004.25
2018-07-30T04:31:46.081Z,1004.28
2018-07-30T04:33:01.090Z,1004.26
2018-07-30T04:34:15.256Z,1004.28
2018-07-30T04:35:30.038Z,1004.23
2018-07-30T04:36:44.015Z,1004.27
2018-07-30T04:37:58.217Z,1004.27
2018-07-30T04:39:12.422Z,1004.3
2018-07-30T04:40:26.375Z,1004.3
2018-07-30T04:41:41.478Z,1004.32
2018-07-30T04:42:55.417Z,1004.32
2018-07-30T04:44:10.107Z,1004.4
2018-07-30T04:45:24.547Z,1004.39
2018-07-30T04:46:39.279Z,1004.39
2018-07-30T04:47:54.521Z,1004.42
2018-07-30T04:49:09.232Z,1004.37
2018-07-30T04:50:23.525Z,1004.39
2018-07-30T04:51:38.788Z,1004.42
2018-07-30T04:52:53.569Z,1004.42
2018-07-30T04:54:08.613Z,1004.43
2018-07-30T04:55:22.824Z,1004.45
2018-07-30T04:56:37.901Z,1004.41
2018-07-30T04:57:53.037Z,1004.47
2018-07-30T04:59:07.239Z,1004.46
2018-07-30T05:00:21.760Z,1004.43
2018-07-30T05:01:36.211Z,1004.47
2018-07-30T05:02:50.381Z,1004.47
2018-07-30T05:04:05.233Z,1004.45
2018-07-30T05:05:19.448Z,1004.4
2018-07-30T05:06:34.194Z,1004.43
2018-07-30T05:07:48.707Z,1004.4
2018-07-30T05:09:02.926Z,1004.35
2018-07-30T05:10:16.924Z,1004.32
2018-07-30T05:11:31.918Z,1004.29
2018-07-30T05:12:46.823Z,1004.31
2018-07-30T05:14:01.086Z,1004.31
2018-07-30T05:15:16.057Z,1004.34
2018-07-30T05:16:30.527Z,1004.36
2018-07-30T05:17:45.702Z,1004.36
2018-07-30T05:19:00.935Z,1004.39
2018-07-30T05:20:15.758Z,1004.38
2018-07-30T05:21:30.206Z,1004.4
2018-07-30T05:22:44.685Z,1004.45
2018-07-30T05:23:59.201Z,1004.43
2018-07-30T05:25:13.802Z,1004.45
2018-07-30T05:26:28.667Z,1004.46
2018-07-30T05:27:43.453Z,1004.43
2018-07-30T05:28:57.773Z,1004.37
2018-07-30T05:30:11.774Z,1004.32
2018-07-30T05:31:26.792Z,1004.34
2018-07-30T05:32:41.796Z,1004.31
2018-07-30T05:33:56.697Z,1004.3
2018-07-30T05:35:11.186Z,1004.34
2018-07-30T05:36:25.666Z,1004.33
2018-07-30T05:37:40.537Z,1004.34
2018-07-30T05:38:55.065Z,1004.41
2018-07-30T05:40:09.521Z,1004.38
2018-07-30T05:41:24.847Z,1004.37
2018-07-30T05:42:39.539Z,1004.4
2018-07-30T05:43:55.133Z,1004.33
2018-07-30T05:45:09.930Z,1004.38
2018-07-30T05:46:23.866Z,1004.34
2018-07-30T05:47:38.412Z,1004.28
2018-07-30T05:48:53.311Z,1004.3
2018-07-30T05:50:08.105Z,1004.31
2018-07-30T05:51:22.516Z,1004.3
2018-07-30T05:52:37.205Z,1004.34
2018-07-30T05:53:51.435Z,1004.29
2018-07-30T05:55:06.031Z,1004.29
2018-07-30T05:56:20.750Z,1004.31
2018-07-30T05:57:35.222Z,1004.36
2018-07-30T05:58:50.143Z,1004.37
2018-07-30T06:00:04.591Z,1004.33
2018-07-30T06:01:19.010Z,1004.32
2018-07-30T06:02:34.261Z,1004.33
2018-07-30T06:03:48.450Z,1004.33
2018-07-30T06:05:02.882Z,1004.34
2018-07-30T06:06:17.297Z,1004.39
2018-07-30T06:07:31.472Z,1004.4
2018-07-30T06:08:46.466Z,1004.42
2018-07-30T06:10:00.745Z,1004.43
2018-07-30T06:11:15.292Z,1004.44
2018-07-30T06:12:30.056Z,1004.43
2018-07-30T06:13:44.565Z,1004.45
2018-07-30T06:14:59.303Z,1004.45
2018-07-30T06:16:13.981Z,1004.51
2018-07-30T06:17:28.169Z,1004.47
2018-07-30T06:18:43.125Z,1004.5
2018-07-30T06:19:57.332Z,1004.52
2018-07-30T06:24:59.669Z,1004.63
2018-07-30T06:26:13.893Z,1004.64
2018-07-30T06:27:28.319Z,1004.66
2018-07-30T06:28:43.535Z,1004.69
2018-07-30T06:29:58.077Z,1004.71
2018-07-30T06:31:13.194Z,1004.71
2018-07-30T06:32:27.636Z,1004.76
2018-07-30T06:33:42.088Z,1004.74
2018-07-30T06:34:56.863Z,1004.7
2018-07-30T06:36:11.065Z,1004.74
2018-07-30T06:37:25.777Z,1004.74
2018-07-30T06:38:39.758Z,1004.74
2018-07-30T06:39:54.747Z,1004.74
2018-07-30T06:41:09.944Z,1004.73
2018-07-30T06:42:24.674Z,1004.74
2018-07-30T06:43:39.124Z,1004.72
2018-07-30T06:44:53.903Z,1004.74
2018-07-30T06:46:08.994Z,1004.74
2018-07-30T06:47:29.466Z,1004.73
2018-07-30T06:48:43.919Z,1004.72
2018-07-30T06:49:58.382Z,1004.73
2018-07-30T06:51:13.087Z,1004.75
2018-07-30T06:52:27.847Z,1004.79
2018-07-30T06:53:42.099Z,1004.79
2018-07-30T06:54:56.604Z,1004.82
2018-07-30T06:56:11.400Z,1004.82
2018-07-30T06:57:25.865Z,1004.8
2018-07-30T06:58:40.569Z,1004.79
2018-07-30T06:59:54.701Z,1004.79
2018-07-30T07:01:09.442Z,1004.78
2018-07-30T07:02:24.129Z,1004.81
2018-07-30T07:03:38.351Z,1004.8
2018-07-30T07:04:52.596Z,1004.86
2018-07-30T07:06:06.595Z,1004.83
2018-07-30T07:07:21.306Z,1004.86
2018-07-30T07:08:36.164Z,1004.85
2018-07-30T07:09:50.632Z,1004.8
2018-07-30T07:11:05.649Z,1004.82
2018-07-30T07:12:19.847Z,1004.88
2018-07-30T07:13:34.328Z,1004.82
2018-07-30T07:14:48.583Z,1004.81
2018-07-30T07:16:03.465Z,1004.83
2018-07-30T07:17:17.700Z,1004.84
2018-07-30T07:18:32.400Z,1004.84
2018-07-30T07:23:01.143Z,1004.85
2018-07-30T07:24:16.451Z,1004.82
2018-07-30T07:25:30.908Z,1004.86
2018-07-30T07:26:45.719Z,1004.86
2018-07-30T07:28:00.192Z,1004.8
2018-07-30T07:29:14.271Z,1004.79
2018-07-30T07:30:29.015Z,1004.79
2018-07-30T07:31:43.457Z,1004.81
2018-07-30T07:32:58.247Z,1004.8
2018-07-30T07:34:12.444Z,1004.77
2018-07-30T07:35:27.140Z,1004.78
2018-07-30T07:36:41.645Z,1004.78
2018-07-30T07:37:56.215Z,1004.78
2018-07-30T07:39:10.946Z,1004.78
2018-07-30T07:40:25.836Z,1004.76
2018-07-30T07:41:40.131Z,1004.79
2018-07-30T07:42:55.459Z,1004.8
2018-07-30T07:44:09.760Z,1004.81
2018-07-30T07:45:24.759Z,1004.85
2018-07-30T07:46:39.496Z,1004.89
2018-07-30T07:47:53.689Z,1004.9
2018-07-30T07:49:08.602Z,1004.9
2018-07-30T07:50:23.423Z,1004.91
2018-07-30T07:51:39.013Z,1004.88
2018-07-30T07:52:53.506Z,1004.93
2018-07-30T07:54:08.201Z,1004.92
2018-07-30T07:55:22.984Z,1004.92
2018-07-30T07:56:37.483Z,1004.9
2018-07-30T07:57:51.980Z,1004.93
2018-07-30T07:59:05.917Z,1004.93
2018-07-30T08:00:20.400Z,1004.94
2018-07-30T08:01:35.259Z,1004.93
2018-07-30T08:02:49.496Z,1004.95
2018-07-30T08:04:03.580Z,1004.95
2018-07-30T08:05:17.921Z,1004.94
2018-07-30T08:06:32.572Z,1004.9
2018-07-30T08:07:47.356Z,1004.91
2018-07-30T08:09:01.143Z,1004.89
2018-07-30T08:10:15.480Z,1004.87
2018-07-30T08:11:29.787Z,1004.86
2018-07-30T08:12:44.918Z,1004.88
2018-07-30T08:13:59.762Z,1004.92
2018-07-30T08:15:14.259Z,1004.9
2018-07-30T08:16:29.400Z,1004.89
2018-07-30T08:17:43.245Z,1004.9
2018-07-30T08:18:57.887Z,1004.92
2018-07-30T08:20:12.966Z,1004.94
2018-07-30T08:21:27.691Z,1004.91
2018-07-30T08:22:42.517Z,1004.91
2018-07-30T08:23:57.262Z,1004.86
2018-07-30T08:25:11.527Z,1004.83
2018-07-30T08:26:26.280Z,1004.88
2018-07-30T08:27:40.742Z,1004.86
2018-07-30T08:28:55.174Z,1004.84
2018-07-30T08:30:10.376Z,1004.85
2018-07-30T08:31:25.492Z,1004.85
2018-07-30T08:32:40.809Z,1004.9
2018-07-30T08:33:55.566Z,1004.9
2018-07-30T08:35:10.080Z,1004.85
2018-07-30T08:36:24.316Z,1004.86
2018-07-30T08:37:38.304Z,1004.88
2018-07-30T08:38:53.219Z,1004.93
2018-07-30T08:40:08.135Z,1004.91
2018-07-30T08:41:22.372Z,1004.93
2018-07-30T08:42:36.623Z,1004.97
2018-07-30T08:43:51.087Z,1004.96
2018-07-30T08:45:06.146Z,1004.93
2018-07-30T08:46:20.896Z,1004.92
2018-07-30T08:47:36.076Z,1004.95
2018-07-30T08:48:50.684Z,1004.96
2018-07-30T08:50:06.064Z,1004.97
2018-07-30T08:51:20.854Z,1004.95
2018-07-30T08:52:35.655Z,1004.99
2018-07-30T08:53:50.430Z,1004.99
2018-07-30T08:55:04.820Z,1005.01
2018-07-30T08:56:19.914Z,1005.05
2018-07-30T08:57:35.235Z,1005.03
2018-07-30T08:58:49.797Z,1005.06
2018-07-30T09:00:04.605Z,1005.06
2018-07-30T09:01:19.159Z,1005.05
2018-07-30T09:02:33.678Z,1005.07
2018-07-30T09:03:48.913Z,1005.01
2018-07-30T09:05:03.402Z,1005.02
2018-07-30T09:06:18.099Z,1004.99
2018-07-30T09:07:32.852Z,1005.01
2018-07-30T09:08:47.658Z,1004.97
2018-07-30T09:10:02.195Z,1004.93
2018-07-30T09:11:16.592Z,1004.95
2018-07-30T09:12:30.808Z,1004.93
2018-07-30T09:13:45.114Z,1004.95
2018-07-30T09:15:00.088Z,1004.93
2018-07-30T09:16:15.023Z,1004.91
2018-07-30T09:17:28.740Z,1004.96
2018-07-30T09:18:43.483Z,1004.89
2018-07-30T09:19:58.495Z,1004.88
2018-07-30T09:21:13.355Z,1004.88
2018-07-30T09:22:27.363Z,1004.87
2018-07-30T09:23:41.573Z,1004.87
2018-07-30T09:24:56.275Z,1004.83
2018-07-30T09:26:10.545Z,1004.83
2018-07-30T09:27:25.031Z,1004.84
2018-07-30T09:28:39.576Z,1004.81
2018-07-30T09:29:54.012Z,1004.79
2018-07-30T09:31:08.327Z,1004.85
2018-07-30T09:32:22.789Z,1004.82
2018-07-30T09:33:37.342Z,1004.82
2018-07-30T09:34:52.332Z,1004.8
2018-07-30T09:36:06.834Z,1004.81
2018-07-30T09:37:21.025Z,1004.72
2018-07-30T09:38:35.523Z,1004.74
2018-07-30T09:39:50.729Z,1004.8
2018-07-30T09:41:05.263Z,1004.76
2018-07-30T09:42:19.937Z,1004.76
2018-07-30T09:43:34.640Z,1004.76
2018-07-30T09:44:49.341Z,1004.75
2018-07-30T09:46:04.391Z,1004.8
2018-07-30T09:47:19.169Z,1004.73
2018-07-30T09:48:34.161Z,1004.8
2018-07-30T09:49:48.191Z,1004.77
2018-07-30T09:51:02.912Z,1004.81
2018-07-30T09:52:17.408Z,1004.75
2018-07-30T09:53:32.783Z,1004.73
2018-07-30T09:55:00.501Z,1004.71
2018-07-30T09:56:15.265Z,1004.71
2018-07-30T09:57:30.262Z,1004.71
2018-07-30T09:58:45.561Z,1004.7
2018-07-30T09:59:59.518Z,1004.7
2018-07-30T10:01:14.269Z,1004.67
2018-07-30T10:02:28.787Z,1004.63
2018-07-30T10:03:43.271Z,1004.6
2018-07-30T10:04:58.054Z,1004.64
2018-07-30T10:06:12.612Z,1004.64
2018-07-30T10:07:27.333Z,1004.57
2018-07-30T10:08:41.803Z,1004.55
2018-07-30T10:09:56.750Z,1004.57
2018-07-30T10:11:12.050Z,1004.56
2018-07-30T10:12:26.184Z,1004.59
2018-07-30T10:13:40.409Z,1004.55
2018-07-30T10:14:54.137Z,1004.56
2018-07-30T10:16:08.352Z,1004.53
2018-07-30T10:17:23.554Z,1004.58
2018-07-30T10:18:38.421Z,1004.53
2018-07-30T10:19:53.511Z,1004.53
2018-07-30T10:21:08.262Z,1004.52
2018-07-30T10:22:23.349Z,1004.51
2018-07-30T10:23:38.417Z,1004.54
2018-07-30T10:24:53.155Z,1004.5
2018-07-30T10:26:07.717Z,1004.52
2018-07-30T10:27:21.878Z,1004.49
2018-07-30T10:28:36.378Z,1004.49
2018-07-30T10:29:51.147Z,1004.52
2018-07-30T10:31:05.639Z,1004.49
2018-07-30T10:32:20.743Z,1004.44
2018-07-30T10:33:35.265Z,1004.5
2018-07-30T10:34:50.222Z,1004.47
2018-07-30T10:36:05.237Z,1004.46
2018-07-30T10:37:19.233Z,1004.4
2018-07-30T10:38:33.959Z,1004.4
2018-07-30T10:39:48.504Z,1004.41
2018-07-30T10:41:02.871Z,1004.4
2018-07-30T10:42:17.420Z,1004.4
2018-07-30T10:43:32.276Z,1004.31
2018-07-30T10:44:46.409Z,1004.37
2018-07-30T10:46:01.109Z,1004.38
2018-07-30T10:47:16.014Z,1004.31
2018-07-30T10:48:31.085Z,1004.32
2018-07-30T10:49:45.688Z,1004.32
2018-07-30T10:51:00.164Z,1004.29
2018-07-30T10:52:14.384Z,1004.26
2018-07-30T10:53:29.217Z,1004.26
2018-07-30T10:54:44.320Z,1004.21
2018-07-30T10:55:58.800Z,1004.22
2018-07-30T10:57:12.837Z,1004.2
2018-07-30T10:58:27.010Z,1004.19
2018-07-30T10:59:42.094Z,1004.13
2018-07-30T11:00:56.702Z,1004.17
2018-07-30T11:02:12.104Z,1004.18
2018-07-30T11:03:27.306Z,1004.18
2018-07-30T11:04:41.248Z,1004.12
2018-07-30T11:05:55.542Z,1004.15
2018-07-30T11:07:10.293Z,1004.14
2018-07-30T11:08:25.340Z,1004.14
2018-07-30T11:09:39.908Z,1004.18
2018-07-30T11:10:54.686Z,1004.13
2018-07-30T11:12:09.137Z,1004.11
2018-07-30T11:13:23.522Z,1004.11
2018-07-30T11:14:38.365Z,1004.08
2018-07-30T11:15:52.910Z,1004.09
2018-07-30T11:17:07.145Z,1004.06
2018-07-30T11:18:21.611Z,1004.04
2018-07-30T11:19:36.875Z,1004.05
2018-07-30T11:20:51.610Z,1004.04
2018-07-30T11:22:06.466Z,1004.03
2018-07-30T11:23:21.189Z,1004.08
2018-07-30T11:24:35.861Z,1004.07
2018-07-30T11:25:50.489Z,1004.09
2018-07-30T11:27:05.394Z,1004.09
2018-07-30T11:28:20.427Z,1004.1
2018-07-30T11:29:35.684Z,1004.12
2018-07-30T11:30:49.898Z,1004.1
2018-07-30T11:32:04.906Z,1004.08
2018-07-30T11:33:19.640Z,1004.06
2018-07-30T11:34:34.474Z,1004.07
2018-07-30T11:35:48.926Z,1004.04
2018-07-30T11:37:03.645Z,1004.01
2018-07-30T11:38:18.416Z,1004
2018-07-30T11:39:32.785Z,1004.01
2018-07-30T11:40:46.487Z,1003.99
2018-07-30T11:42:00.951Z,1003.95
2018-07-30T11:43:15.510Z,1003.96
2018-07-30T11:44:30.368Z,1003.9
2018-07-30T11:45:45.120Z,1003.93
2018-07-30T11:46:59.388Z,1003.95
2018-07-30T11:48:13.842Z,1003.91
2018-07-30T11:49:29.096Z,1003.92
2018-07-30T11:50:44.131Z,1003.9
2018-07-30T11:51:58.860Z,1003.95
2018-07-30T11:53:13.656Z,1003.94
2018-07-30T11:54:28.467Z,1003.93
2018-07-30T11:55:42.774Z,1003.91
2018-07-30T11:56:57.812Z,1003.92
2018-07-30T11:58:12.313Z,1003.88
2018-07-30T11:59:27.251Z,1003.83
2018-07-30T12:00:41.561Z,1003.82
2018-07-30T12:01:56.656Z,1003.9
2018-07-30T12:03:11.470Z,1003.89
2018-07-30T12:04:26.198Z,1003.87
2018-07-30T12:05:40.769Z,1003.84
2018-07-30T12:06:55.010Z,1003.83
2018-07-30T12:08:09.261Z,1003.78
2018-07-30T12:09:23.787Z,1003.81
2018-07-30T12:10:38.070Z,1003.78
2018-07-30T12:11:52.440Z,1003.77
2018-07-30T12:13:07.442Z,1003.78
2018-07-30T12:14:22.487Z,1003.76
2018-07-30T12:15:37.554Z,1003.73
2018-07-30T12:16:52.403Z,1003.68
2018-07-30T12:18:07.218Z,1003.69
2018-07-30T12:19:21.829Z,1003.63
2018-07-30T12:20:36.207Z,1003.61
2018-07-30T12:21:51.075Z,1003.6
2018-07-30T12:23:05.537Z,1003.63
2018-07-30T12:24:20.085Z,1003.63
2018-07-30T12:25:34.929Z,1003.65
2018-07-30T12:26:49.546Z,1003.64
2018-07-30T12:28:04.112Z,1003.66
2018-07-30T12:29:18.145Z,1003.58
2018-07-30T12:30:32.789Z,1003.63
2018-07-30T12:31:47.326Z,1003.64
2018-07-30T12:33:01.843Z,1003.61
2018-07-30T12:34:16.642Z,1003.58
2018-07-30T12:35:30.884Z,1003.57
2018-07-30T12:36:45.971Z,1003.59
2018-07-30T12:38:00.717Z,1003.59
2018-07-30T12:39:14.972Z,1003.6
2018-07-30T12:40:29.290Z,1003.63
2018-07-30T12:41:43.836Z,1003.58
2018-07-30T12:42:58.850Z,1003.56
2018-07-30T12:44:13.357Z,1003.56
2018-07-30T12:45:28.121Z,1003.55
2018-07-30T12:46:42.737Z,1003.53
2018-07-30T12:47:57.003Z,1003.48
2018-07-30T12:49:11.718Z,1003.52
2018-07-30T12:50:26.693Z,1003.53
2018-07-30T12:51:42.404Z,1003.5
2018-07-30T12:52:57.061Z,1003.49
2018-07-30T12:54:12.105Z,1003.48
2018-07-30T12:55:26.643Z,1003.47
2018-07-30T12:56:40.915Z,1003.44
2018-07-30T12:57:55.290Z,1003.48
2018-07-30T12:59:10.206Z,1003.38
2018-07-30T13:00:24.943Z,1003.46
2018-07-30T13:01:40.007Z,1003.49
2018-07-30T13:02:54.617Z,1003.43
2018-07-30T13:04:09.907Z,1003.46
2018-07-30T13:05:24.951Z,1003.45
2018-07-30T13:06:39.441Z,1003.43
2018-07-30T13:07:54.430Z,1003.41
2018-07-30T13:09:08.163Z,1003.37
2018-07-30T13:10:23.396Z,1003.34
2018-07-30T13:11:38.070Z,1003.31
2018-07-30T13:12:52.869Z,1003.27
2018-07-30T13:14:07.845Z,1003.23
2018-07-30T13:15:21.953Z,1003.24
2018-07-30T13:16:36.427Z,1003.21
2018-07-30T13:17:50.916Z,1003.19
2018-07-30T13:19:05.431Z,1003.27
2018-07-30T13:20:19.631Z,1003.24
2018-07-30T13:21:34.112Z,1003.19
2018-07-30T13:22:49.628Z,1003.19
2018-07-30T13:24:03.900Z,1003.16
2018-07-30T13:25:19.116Z,1003.18
2018-07-30T13:26:33.770Z,1003.13
2018-07-30T13:27:50.100Z,1003.11
2018-07-30T13:29:04.132Z,1003.11
2018-07-30T13:30:19.017Z,1003.13
2018-07-30T13:31:33.975Z,1003.11
2018-07-30T13:32:48.879Z,1003.14
2018-07-30T13:34:03.744Z,1003.1
2018-07-30T13:35:17.786Z,1003.06
2018-07-30T13:36:32.831Z,1003.04
2018-07-30T13:37:48.125Z,1003.05
2018-07-30T13:39:02.823Z,1003.01
2018-07-30T13:40:17.312Z,1003.02
2018-07-30T13:41:31.567Z,1003.05
2018-07-30T13:42:46.735Z,1003.01
2018-07-30T13:44:00.999Z,1003.04
2018-07-30T13:45:16.069Z,1003.04
2018-07-30T13:46:30.681Z,1003.08
2018-07-30T13:47:45.532Z,1003
2018-07-30T13:49:00.493Z,1002.97
2018-07-30T13:50:14.253Z,1002.95
2018-07-30T13:51:28.521Z,1002.93
2018-07-30T13:52:42.812Z,1002.89
2018-07-30T13:53:56.562Z,1002.91
2018-07-30T13:55:11.619Z,1002.85
2018-07-30T13:56:26.909Z,1002.86
2018-07-30T13:57:40.890Z,1002.83
2018-07-30T13:58:55.368Z,1002.89
2018-07-30T14:00:09.359Z,1002.84
2018-07-30T14:01:24.812Z,1002.86
2018-07-30T14:02:38.876Z,1002.9
2018-07-30T14:03:53.118Z,1002.91
2018-07-30T14:05:06.732Z,1002.96
2018-07-30T14:06:21.034Z,1002.99
2018-07-30T14:07:36.793Z,1002.98
2018-07-30T14:08:51.902Z,1002.93
2018-07-30T14:10:06.199Z,1003
2018-07-30T14:11:20.525Z,1002.97
2018-07-30T14:12:35.081Z,1002.98
2018-07-30T14:13:49.876Z,1002.93
2018-07-30T14:15:04.160Z,1002.9
2018-07-30T14:16:19.243Z,1002.9
2018-07-30T14:17:33.786Z,1002.89
2018-07-30T14:18:47.925Z,1002.91
2018-07-30T14:20:02.804Z,1002.89
2018-07-30T14:21:18.121Z,1002.96
2018-07-30T14:22:32.366Z,1002.92
2018-07-30T14:23:47.514Z,1002.91
2018-07-30T14:25:02.065Z,1002.91
2018-07-30T14:26:16.686Z,1002.92
2018-07-30T14:27:31.710Z,1002.89
2018-07-30T14:28:46.111Z,1002.88
2018-07-30T14:30:00.339Z,1002.86
2018-07-30T14:31:14.832Z,1002.74
2018-07-30T14:32:29.421Z,1002.77
2018-07-30T14:33:44.251Z,1002.78
2018-07-30T14:34:59.244Z,1002.73
2018-07-30T14:36:13.728Z,1002.8
2018-07-30T14:37:28.381Z,1002.72
2018-07-30T14:38:43.532Z,1002.74
2018-07-30T14:39:58.051Z,1002.72
2018-07-30T14:41:12.561Z,1002.72
2018-07-30T14:42:26.809Z,1002.74
2018-07-30T14:43:41.575Z,1002.77
2018-07-30T14:44:56.841Z,1002.72
2018-07-30T14:46:10.887Z,1002.72
2018-07-30T14:47:25.479Z,1002.72
2018-07-30T14:48:39.717Z,1002.72
2018-07-30T14:49:54.846Z,1002.72
2018-07-30T14:51:09.867Z,1002.68
2018-07-30T14:52:24.208Z,1002.61
2018-07-30T14:53:38.649Z,1002.65
2018-07-30T14:54:53.668Z,1002.62
2018-07-30T14:56:08.743Z,1002.68
2018-07-30T14:57:23.471Z,1002.66
2018-07-30T14:58:37.747Z,1002.63
2018-07-30T14:59:52.758Z,1002.64
2018-07-30T15:01:07.882Z,1002.66
2018-07-30T15:02:22.434Z,1002.68
2018-07-30T15:03:37.190Z,1002.68
2018-07-30T15:04:52.031Z,1002.65
2018-07-30T15:06:06.814Z,1002.7
2018-07-30T15:07:21.726Z,1002.68
2018-07-30T15:08:36.300Z,1002.64
2018-07-30T15:09:51.264Z,1002.66
2018-07-30T15:11:05.735Z,1002.62
2018-07-30T15:12:19.853Z,1002.58
2018-07-30T15:13:34.474Z,1002.61